New Auburn, Minnesota
Current Conditions -  °F | °C
As of 3:34 AM on Monday 24 Nov 2014 (Local Time) from KGYL Reporting Station
Overcast Overcast  
Wind Chill: 12°   Ceiling: 1000
Heat Index: 27°   Visibility: 10mi
Dew Point: 24°   Wind: 22mph
Humidity: 90%   Direction: 290°WNW
Pressure: 29.36"   Gusts: NA
Location:  44.67°N, 94.23°W
Report Text: KGYL 240934Z AUTO 29019KT 10SM OVC010 M03/M04 A2936 RMK AO2 T10301045
Loading
Personal Weather Stations






























Interactive Weather Map New forecast layout! Learn more

10-Day Weather Forecast

Advertisements
Track Severe Weather on mobile